sensor_id;sensor_type;location;lat;lon;timestamp;pressure;altitude;pressure_sealevel;temperature;humidity
35443;BME280;21561;55.654;37.592;2023-02-20T00:01:58;97240.22;;;-6.17;100.00
35443;BME280;21561;55.654;37.592;2023-02-20T00:04:25;97233.53;;;-6.15;100.00
35443;BME280;21561;55.654;37.592;2023-02-20T00:06:52;97233.56;;;-6.12;100.00
35443;BME280;21561;55.654;37.592;2023-02-20T00:09:19;97235.28;;;-6.11;100.00
35443;BME280;21561;55.654;37.592;2023-02-20T00:11:45;97231.13;;;-6.09;100.00
35443;BME280;21561;55.654;37.592;2023-02-20T00:14:12;97234.47;;;-6.10;100.00
35443;BME280;21561;55.654;37.592;2023-02-20T00:16:39;97237.00;;;-6.10;99.94
35443;BME280;21561;55.654;37.592;2023-02-20T00:19:06;97234.44;;;-6.11;99.89
35443;BME280;21561;55.654;37.592;2023-02-20T00:21:33;97232.69;;;-6.14;99.81
35443;BME280;21561;55.654;37.592;2023-02-20T00:24:00;97242.00;;;-6.13;99.53
35443;BME280;21561;55.654;37.592;2023-02-20T00:26:27;97232.66;;;-6.16;99.63
35443;BME280;21561;55.654;37.592;2023-02-20T00:28:54;97234.31;;;-6.18;99.55
35443;BME280;21561;55.654;37.592;2023-02-20T00:31:21;97235.13;;;-6.20;99.62
35443;BME280;21561;55.654;37.592;2023-02-20T00:33:47;97233.47;;;-6.18;99.52
35443;BME280;21561;55.654;37.592;2023-02-20T00:36:17;97231.81;;;-6.16;99.31
35443;BME280;21561;55.654;37.592;2023-02-20T00:38:44;97229.28;;;-6.16;99.58
35443;BME280;21561;55.654;37.592;2023-02-20T00:41:13;97227.69;;;-6.12;99.78
35443;BME280;21561;55.654;37.592;2023-02-20T00:43:41;97225.19;;;-6.11;99.77
35443;BME280;21561;55.654;37.592;2023-02-20T00:46:12;97230.31;;;-6.08;99.76
35443;BME280;21561;55.654;37.592;2023-02-20T00:48:40;97224.31;;;-6.13;99.83
35443;BME280;21561;55.654;37.592;2023-02-20T00:51:07;97224.34;;;-6.11;99.84
35443;BME280;21561;55.654;37.592;2023-02-20T00:53:34;97220.16;;;-6.11;99.79
35443;BME280;21561;55.654;37.592;2023-02-20T00:56:01;97213.38;;;-6.12;99.38
35443;BME280;21561;55.654;37.592;2023-02-20T00:58:28;97217.59;;;-6.12;99.23
35443;BME280;21561;55.654;37.592;2023-02-20T01:00:55;97226.00;;;-6.13;99.42
35443;BME280;21561;55.654;37.592;2023-02-20T01:03:22;97220.88;;;-6.17;99.71
35443;BME280;21561;55.654;37.592;2023-02-20T01:05:48;97218.31;;;-6.18;99.54
35443;BME280;21561;55.654;37.592;2023-02-20T01:08:15;97223.28;;;-6.21;99.27
35443;BME280;21561;55.654;37.592;2023-02-20T01:10:42;97226.66;;;-6.22;99.46
35443;BME280;21561;55.654;37.592;2023-02-20T01:13:10;97219.91;;;-6.23;99.06
35443;BME280;21561;55.654;37.592;2023-02-20T01:15:37;97217.34;;;-6.25;99.45
35443;BME280;21561;55.654;37.592;2023-02-20T01:18:04;97220.66;;;-6.27;99.29
35443;BME280;21561;55.654;37.592;2023-02-20T01:20:31;97226.59;;;-6.25;99.57
35443;BME280;21561;55.654;37.592;2023-02-20T01:22:58;97222.41;;;-6.23;99.79
35443;BME280;21561;55.654;37.592;2023-02-20T01:25:25;97224.13;;;-6.22;99.39
35443;BME280;21561;55.654;37.592;2023-02-20T01:27:52;97225.81;;;-6.21;99.40
35443;BME280;21561;55.654;37.592;2023-02-20T01:30:19;97228.34;;;-6.21;99.11
35443;BME280;21561;55.654;37.592;2023-02-20T01:32:46;97237.56;;;-6.23;98.96
35443;BME280;21561;55.654;37.592;2023-02-20T01:35:14;97231.72;;;-6.22;98.84
35443;BME280;21561;55.654;37.592;2023-02-20T01:37:41;97238.41;;;-6.23;99.00
35443;BME280;21561;55.654;37.592;2023-02-20T01:40:18;97230.06;;;-6.20;99.01
35443;BME280;21561;55.654;37.592;2023-02-20T01:42:45;97236.69;;;-6.25;99.15
35443;BME280;21561;55.654;37.592;2023-02-20T01:47:53;97236.69;;;-6.25;98.64
35443;BME280;21561;55.654;37.592;2023-02-20T01:50:24;97237.56;;;-6.23;99.09
35443;BME280;21561;55.654;37.592;2023-02-20T01:52:55;97238.41;;;-6.24;98.67
35443;BME280;21561;55.654;37.592;2023-02-20T01:55:32;97235.88;;;-6.23;98.89
35443;BME280;21561;55.654;37.592;2023-02-20T01:58:11;97235.03;;;-6.23;98.82
35443;BME280;21561;55.654;37.592;2023-02-20T02:00:40;97239.97;;;-6.29;98.65
35443;BME280;21561;55.654;37.592;2023-02-20T02:03:13;97235.88;;;-6.24;98.54
35443;BME280;21561;55.654;37.592;2023-02-20T02:05:45;97233.28;;;-6.27;98.55
35443;BME280;21561;55.654;37.592;2023-02-20T02:08:14;97239.97;;;-6.29;98.40
35443;BME280;21561;55.654;37.592;2023-02-20T02:11:02;97233.41;;;-6.21;98.56
35443;BME280;21561;55.654;37.592;2023-02-20T02:13:30;97244.13;;;-6.33;98.42
35443;BME280;21561;55.654;37.592;2023-02-20T02:36:21;97262.66;;;-6.31;98.18
35443;BME280;21561;55.654;37.592;2023-02-20T02:42:03;97264.19;;;-6.38;97.98
35443;BME280;21561;55.654;37.592;2023-02-20T02:44:50;97268.47;;;-6.34;98.31
35443;BME280;21561;55.654;37.592;2023-02-20T02:47:30;97266.78;;;-6.35;98.30
35443;BME280;21561;55.654;37.592;2023-02-20T02:50:09;97275.13;;;-6.37;98.12
35443;BME280;21561;55.654;37.592;2023-02-20T02:52:39;97272.50;;;-6.43;97.90
35443;BME280;21561;55.654;37.592;2023-02-20T02:55:20;97271.66;;;-6.44;98.27
35443;BME280;21561;55.654;37.592;2023-02-20T02:57:47;97266.03;;;-6.30;98.20
35443;BME280;21561;55.654;37.592;2023-02-20T03:00:19;97265.75;;;-6.43;97.97
35443;BME280;21561;55.654;37.592;2023-02-20T03:03:12;97264.19;;;-6.38;97.97
35443;BME280;21561;55.654;37.592;2023-02-20T03:05:48;97267.47;;;-6.42;98.02
35443;BME280;21561;55.654;37.592;2023-02-20T03:08:22;97269.09;;;-6.45;97.90
35443;BME280;21561;55.654;37.592;2023-02-20T03:11:06;97271.66;;;-6.44;97.73
35443;BME280;21561;55.654;37.592;2023-02-20T03:13:52;97264.88;;;-6.45;97.62
35443;BME280;21561;55.654;37.592;2023-02-20T03:16:46;97266.44;;;-6.50;97.38
35443;BME280;21561;55.654;37.592;2023-02-20T03:19:19;97271.44;;;-6.53;97.06
35443;BME280;21561;55.654;37.592;2023-02-20T03:21:47;97271.28;;;-6.59;97.05
35443;BME280;21561;55.654;37.592;2023-02-20T03:24:16;97274.69;;;-6.57;96.87
35443;BME280;21561;55.654;37.592;2023-02-20T03:26:46;97277.09;;;-6.63;97.16
35443;BME280;21561;55.654;37.592;2023-02-20T03:29:22;97272.84;;;-6.64;96.97
35443;BME280;21561;55.654;37.592;2023-02-20T03:31:57;97277.78;;;-6.70;96.69
35443;BME280;21561;55.654;37.592;2023-02-20T03:34:46;97277.69;;;-6.74;96.84
35443;BME280;21561;55.654;37.592;2023-02-20T03:37:34;97267.53;;;-6.77;96.73
35443;BME280;21561;55.654;37.592;2023-02-20T03:40:22;97274.16;;;-6.82;97.02
35443;BME280;21561;55.654;37.592;2023-02-20T03:43:15;97267.50;;;-6.80;96.92
35443;BME280;21561;55.654;37.592;2023-02-20T03:46:04;97280.03;;;-6.83;96.79
35443;BME280;21561;55.654;37.592;2023-02-20T03:48:42;97279.91;;;-6.87;97.08
35443;BME280;21561;55.654;37.592;2023-02-20T03:51:11;97277.19;;;-6.95;97.20
35443;BME280;21561;55.654;37.592;2023-02-20T03:53:42;97275.56;;;-6.93;97.26
35443;BME280;21561;55.654;37.592;2023-02-20T03:56:25;97285.72;;;-6.90;97.30
35443;BME280;21561;55.654;37.592;2023-02-20T03:59:01;97285.66;;;-6.93;97.37
35443;BME280;21561;55.654;37.592;2023-02-20T04:01:31;97288.13;;;-6.96;97.53
35443;BME280;21561;55.654;37.592;2023-02-20T04:04:00;97280.41;;;-7.02;97.13
35443;BME280;21561;55.654;37.592;2023-02-20T04:06:30;97280.44;;;-7.01;96.96
35443;BME280;21561;55.654;37.592;2023-02-20T04:09:04;97282.13;;;-7.01;97.09
35443;BME280;21561;55.654;37.592;2023-02-20T04:11:33;97279.50;;;-7.04;97.07
35443;BME280;21561;55.654;37.592;2023-02-20T04:14:02;97287.06;;;-7.04;97.39
35443;BME280;21561;55.654;37.592;2023-02-20T04:16:33;97285.44;;;-7.02;97.48
35443;BME280;21561;55.654;37.592;2023-02-20T04:19:02;97286.22;;;-7.05;97.33
35443;BME280;21561;55.654;37.592;2023-02-20T04:24:53;97287.22;;;-6.98;96.96
35443;BME280;21561;55.654;37.592;2023-02-20T04:27:22;97284.47;;;-7.07;97.10
35443;BME280;21561;55.654;37.592;2023-02-20T04:29:49;97294.50;;;-7.09;96.97
35443;BME280;21561;55.654;37.592;2023-02-20T04:32:16;97296.94;;;-7.14;97.01
35443;BME280;21561;55.654;37.592;2023-02-20T04:34:43;97295.22;;;-7.15;97.32
35443;BME280;21561;55.654;37.592;2023-02-20T04:37:16;97298.63;;;-7.13;97.30
35443;BME280;21561;55.654;37.592;2023-02-20T04:39:45;97301.06;;;-7.17;97.07
35443;BME280;21561;55.654;37.592;2023-02-20T04:42:12;97295.13;;;-7.18;97.39
35443;BME280;21561;55.654;37.592;2023-02-20T04:44:39;97304.47;;;-7.15;97.44
35443;BME280;21561;55.654;37.592;2023-02-20T04:47:13;97302.03;;;-7.11;97.60
35443;BME280;21561;55.654;37.592;2023-02-20T04:49:40;97302.78;;;-7.15;97.05
35443;BME280;21561;55.654;37.592;2023-02-20T04:52:07;97299.38;;;-7.17;96.96
35443;BME280;21561;55.654;37.592;2023-02-20T04:54:34;97292.50;;;-7.22;96.36
35443;BME280;21561;55.654;37.592;2023-02-20T04:57:01;97288.22;;;-7.25;96.35
35443;BME280;21561;55.654;37.592;2023-02-20T04:59:27;97294.91;;;-7.27;96.45
35443;BME280;21561;55.654;37.592;2023-02-20T05:01:54;97307.50;;;-7.27;96.61
35443;BME280;21561;55.654;37.592;2023-02-20T05:04:22;97305.06;;;-7.24;96.62
35443;BME280;21561;55.654;37.592;2023-02-20T05:06:51;97297.56;;;-7.22;96.77
35443;BME280;21561;55.654;37.592;2023-02-20T05:09:19;97303.34;;;-7.25;96.49
35443;BME280;21561;55.654;37.592;2023-02-20T05:11:46;97307.59;;;-7.24;96.61
35443;BME280;21561;55.654;37.592;2023-02-20T05:14:14;97306.78;;;-7.23;96.73
35443;BME280;21561;55.654;37.592;2023-02-20T05:16:41;97306.84;;;-7.20;96.84
35443;BME280;21561;55.654;37.592;2023-02-20T05:19:12;97301.09;;;-7.14;97.21
35443;BME280;21561;55.654;37.592;2023-02-20T05:21:43;97308.03;;;-7.05;96.72
35443;BME280;21561;55.654;37.592;2023-02-20T05:24:29;97311.50;;;-7.02;96.73
35443;BME280;21561;55.654;37.592;2023-02-20T05:26:58;97318.34;;;-6.98;96.72
35443;BME280;21561;55.654;37.592;2023-02-20T05:29:24;97322.59;;;-6.95;96.51
35443;BME280;21561;55.654;37.592;2023-02-20T05:31:51;97315.91;;;-6.93;96.51
35443;BME280;21561;55.654;37.592;2023-02-20T05:34:18;97315.94;;;-6.92;96.40
35443;BME280;21561;55.654;37.592;2023-02-20T05:36:48;97314.34;;;-6.88;96.37
35443;BME280;21561;55.654;37.592;2023-02-20T05:39:15;97317.72;;;-6.89;96.29
35443;BME280;21561;55.654;37.592;2023-02-20T05:41:41;97317.72;;;-6.89;96.10
35443;BME280;21561;55.654;37.592;2023-02-20T05:44:08;97321.16;;;-6.84;96.51
35443;BME280;21561;55.654;37.592;2023-02-20T05:46:40;97318.81;;;-6.78;96.11
35443;BME280;21561;55.654;37.592;2023-02-20T05:49:08;97322.97;;;-6.80;96.20
35443;BME280;21561;55.654;37.592;2023-02-20T05:51:35;97319.69;;;-6.76;96.19
35443;BME280;21561;55.654;37.592;2023-02-20T05:54:03;97328.16;;;-6.74;96.02
35443;BME280;21561;55.654;37.592;2023-02-20T05:56:31;97326.50;;;-6.72;96.09
35443;BME280;21561;55.654;37.592;2023-02-20T05:58:59;97322.44;;;-6.66;95.77
35443;BME280;21561;55.654;37.592;2023-02-20T06:01:28;97325.13;;;-6.59;95.41
35443;BME280;21561;55.654;37.592;2023-02-20T06:03:56;97332.59;;;-6.63;94.85
35443;BME280;21561;55.654;37.592;2023-02-20T06:06:23;97330.06;;;-6.63;94.90
35443;BME280;21561;55.654;37.592;2023-02-20T06:08:50;97334.28;;;-6.64;94.92
35443;BME280;21561;55.654;37.592;2023-02-20T06:11:17;97331.84;;;-6.59;94.85
35443;BME280;21561;55.654;37.592;2023-02-20T06:13:44;97335.25;;;-6.57;94.01
35443;BME280;21561;55.654;37.592;2023-02-20T06:16:12;97336.16;;;-6.54;94.69
35443;BME280;21561;55.654;37.592;2023-02-20T06:18:43;97335.41;;;-6.51;94.41
35443;BME280;21561;55.654;37.592;2023-02-20T06:21:31;97336.25;;;-6.50;94.01
35443;BME280;21561;55.654;37.592;2023-02-20T06:24:01;97340.44;;;-6.51;94.44
35443;BME280;21561;55.654;37.592;2023-02-20T06:26:28;97342.19;;;-6.48;94.12
35443;BME280;21561;55.654;37.592;2023-02-20T06:28:55;97348.06;;;-6.48;93.77
35443;BME280;21561;55.654;37.592;2023-02-20T06:31:25;97347.31;;;-6.45;93.68
35443;BME280;21561;55.654;37.592;2023-02-20T06:33:53;97355.72;;;-6.45;93.56
35443;BME280;21561;55.654;37.592;2023-02-20T06:36:23;97349.03;;;-6.43;92.92
35443;BME280;21561;55.654;37.592;2023-02-20T06:38:50;97348.22;;;-6.42;93.16
35443;BME280;21561;55.654;37.592;2023-02-20T06:41:17;97344.13;;;-6.37;93.89
35443;BME280;21561;55.654;37.592;2023-02-20T06:43:44;97335.72;;;-6.36;93.18
35443;BME280;21561;55.654;37.592;2023-02-20T06:46:11;97338.53;;;-6.23;93.40
35443;BME280;21561;55.654;37.592;2023-02-20T06:48:46;97346.31;;;-6.14;92.50
35443;BME280;21561;55.654;37.592;2023-02-20T06:51:19;97348.88;;;-6.12;92.28
35443;BME280;21561;55.654;37.592;2023-02-20T06:53:47;97353.06;;;-6.13;92.65
35443;BME280;21561;55.654;37.592;2023-02-20T06:56:19;97347.50;;;-5.98;92.29
35443;BME280;21561;55.654;37.592;2023-02-20T06:58:48;97348.34;;;-5.98;91.96
35443;BME280;21561;55.654;37.592;2023-02-20T07:01:16;97346.63;;;-5.99;91.65
35443;BME280;21561;55.654;37.592;2023-02-20T07:03:43;97356.78;;;-5.94;92.32
35443;BME280;21561;55.654;37.592;2023-02-20T07:06:11;97360.38;;;-5.84;92.00
35443;BME280;21561;55.654;37.592;2023-02-20T07:08:38;97355.38;;;-5.83;91.15
35443;BME280;21561;55.654;37.592;2023-02-20T07:11:06;97359.53;;;-5.85;90.93
35443;BME280;21561;55.654;37.592;2023-02-20T07:13:34;97356.97;;;-5.86;91.32
35443;BME280;21561;55.654;37.592;2023-02-20T07:16:00;97351.09;;;-5.85;91.33
35443;BME280;21561;55.654;37.592;2023-02-20T07:18:27;97351.13;;;-5.84;90.96
35443;BME280;21561;55.654;37.592;2023-02-20T07:20:55;97347.81;;;-5.81;91.37
35443;BME280;21561;55.654;37.592;2023-02-20T07:23:22;97353.78;;;-5.76;91.03
35443;BME280;21561;55.654;37.592;2023-02-20T07:25:50;97360.66;;;-5.69;91.08
35443;BME280;21561;55.654;37.592;2023-02-20T07:28:17;97365.88;;;-5.63;90.16
35443;BME280;21561;55.654;37.592;2023-02-20T07:30:45;97359.16;;;-5.61;89.46
35443;BME280;21561;55.654;37.592;2023-02-20T07:33:15;97366.69;;;-5.64;89.16
35443;BME280;21561;55.654;37.592;2023-02-20T07:35:43;97362.47;;;-5.65;89.47
35443;BME280;21561;55.654;37.592;2023-02-20T07:38:11;97363.41;;;-5.60;90.03
35443;BME280;21561;55.654;37.592;2023-02-20T07:40:38;97366.28;;;-5.41;91.61
35443;BME280;21561;55.654;37.592;2023-02-20T07:43:05;97363.88;;;-5.35;89.37
35443;BME280;21561;55.654;37.592;2023-02-20T07:45:33;97352.94;;;-5.34;88.86
35443;BME280;21561;55.654;37.592;2023-02-20T07:48:00;97358.09;;;-5.28;88.60
35443;BME280;21561;55.654;37.592;2023-02-20T07:50:27;97363.22;;;-5.25;88.02
35443;BME280;21561;55.654;37.592;2023-02-20T07:52:54;97361.47;;;-5.29;87.69
35443;BME280;21561;55.654;37.592;2023-02-20T07:55:21;97361.69;;;-5.16;87.23
35443;BME280;21561;55.654;37.592;2023-02-20T07:57:48;97367.50;;;-5.21;87.47
35443;BME280;21561;55.654;37.592;2023-02-20T08:00:17;97371.69;;;-5.23;87.33
35443;BME280;21561;55.654;37.592;2023-02-20T08:02:45;97372.41;;;-5.28;87.47
35443;BME280;21561;55.654;37.592;2023-02-20T08:05:12;97384.97;;;-5.33;87.42
35443;BME280;21561;55.654;37.592;2023-02-20T08:07:47;97381.88;;;-5.20;87.54
35443;BME280;21561;55.654;37.592;2023-02-20T08:10:16;97387.72;;;-5.22;86.83
35443;BME280;21561;55.654;37.592;2023-02-20T08:12:44;97381.75;;;-5.26;86.55
35443;BME280;21561;55.654;37.592;2023-02-20T08:15:11;97386.75;;;-5.29;86.33
35443;BME280;21561;55.654;37.592;2023-02-20T08:17:41;97381.66;;;-5.30;86.60
35443;BME280;21561;55.654;37.592;2023-02-20T08:20:14;97389.19;;;-5.33;87.19
35443;BME280;21561;55.654;37.592;2023-02-20T08:22:45;97387.69;;;-5.24;87.30
35443;BME280;21561;55.654;37.592;2023-02-20T08:25:14;97390.22;;;-5.24;87.12
35443;BME280;21561;55.654;37.592;2023-02-20T08:27:46;97384.56;;;-5.10;85.63
35443;BME280;21561;55.654;37.592;2023-02-20T08:30:20;97387.94;;;-5.10;85.78
35443;BME280;21561;55.654;37.592;2023-02-20T08:32:50;97386.91;;;-5.20;86.63
35443;BME280;21561;55.654;37.592;2023-02-20T08:35:17;97399.34;;;-5.30;85.78
35443;BME280;21561;55.654;37.592;2023-02-20T08:37:45;97398.31;;;-5.40;85.26
35443;BME280;21561;55.654;37.592;2023-02-20T08:40:12;97404.97;;;-5.44;85.68
35443;BME280;21561;55.654;37.592;2023-02-20T08:42:39;97408.31;;;-5.46;85.23
35443;BME280;21561;55.654;37.592;2023-02-20T08:45:06;97407.53;;;-5.42;85.64
35443;BME280;21561;55.654;37.592;2023-02-20T08:47:34;97415.50;;;-5.24;85.17
35443;BME280;21561;55.654;37.592;2023-02-20T08:50:01;97408.78;;;-5.22;84.62
35443;BME280;21561;55.654;37.592;2023-02-20T08:52:28;97408.72;;;-5.25;84.44
35443;BME280;21561;55.654;37.592;2023-02-20T08:54:55;97409.56;;;-5.24;84.72
35443;BME280;21561;55.654;37.592;2023-02-20T08:57:22;97406.31;;;-5.20;85.12
35443;BME280;21561;55.654;37.592;2023-02-20T08:59:49;97407.25;;;-5.13;85.57
35443;BME280;21561;55.654;37.592;2023-02-20T09:02:20;97402.41;;;-5.01;85.45
35443;BME280;21561;55.654;37.592;2023-02-20T09:04:50;97399.97;;;-4.98;84.81
35443;BME280;21561;55.654;37.592;2023-02-20T09:07:17;97395.00;;;-4.93;84.17
35443;BME280;21561;55.654;37.592;2023-02-20T09:09:44;97384.00;;;-4.94;83.31
35443;BME280;21561;55.654;37.592;2023-02-20T09:12:11;97390.03;;;-4.87;84.09
35443;BME280;21561;55.654;37.592;2023-02-20T09:14:41;97389.19;;;-4.88;83.65
35443;BME280;21561;55.654;37.592;2023-02-20T09:17:08;97392.47;;;-4.92;83.89
35443;BME280;21561;55.654;37.592;2023-02-20T09:19:35;97392.59;;;-4.86;84.74
35443;BME280;21561;55.654;37.592;2023-02-20T09:22:02;97398.72;;;-4.73;83.74
35443;BME280;21561;55.654;37.592;2023-02-20T09:24:29;97392.91;;;-4.67;84.40
35443;BME280;21561;55.654;37.592;2023-02-20T09:27:01;97399.88;;;-4.54;83.59
35443;BME280;21561;55.654;37.592;2023-02-20T09:29:28;97401.69;;;-4.47;83.34
35443;BME280;21561;55.654;37.592;2023-02-20T09:31:55;97405.97;;;-4.43;82.26
35443;BME280;21561;55.654;37.592;2023-02-20T09:34:23;97404.34;;;-4.39;82.04
35443;BME280;21561;55.654;37.592;2023-02-20T09:36:49;97401.91;;;-4.31;82.74
35443;BME280;21561;55.654;37.592;2023-02-20T09:39:16;97405.31;;;-4.29;81.28
35443;BME280;21561;55.654;37.592;2023-02-20T09:42:13;97407.97;;;-4.20;80.91
35443;BME280;21561;55.654;37.592;2023-02-20T09:53:23;97398.56;;;-4.82;82.04
35443;BME280;21561;55.654;37.592;2023-02-20T09:55:48;97397.63;;;-4.87;82.60
35443;BME280;21561;55.654;37.592;2023-02-20T09:58:42;97391.09;;;-4.74;82.74
35443;BME280;21561;55.654;37.592;2023-02-20T10:01:16;97397.81;;;-4.76;83.11
35443;BME280;21561;55.654;37.592;2023-02-20T10:04:06;97407.25;;;-4.68;82.58
35443;BME280;21561;55.654;37.592;2023-02-20T10:06:35;97397.88;;;-4.73;81.25
35443;BME280;21561;55.654;37.592;2023-02-20T10:09:03;97393.44;;;-4.85;81.39
35443;BME280;21561;55.654;37.592;2023-02-20T10:27:18;97391.78;;;-4.83;84.52
35443;BME280;21561;55.654;37.592;2023-02-20T10:29:49;97387.41;;;-4.92;84.68
35443;BME280;21561;55.654;37.592;2023-02-20T10:32:42;97390.16;;;-4.80;85.44
35443;BME280;21561;55.654;37.592;2023-02-20T10:35:14;97392.66;;;-4.83;85.51
35443;BME280;21561;55.654;37.592;2023-02-20T10:37:48;97396.00;;;-4.84;84.94
35443;BME280;21561;55.654;37.592;2023-02-20T10:48:24;97381.84;;;-4.72;86.17
35443;BME280;21561;55.654;37.592;2023-02-20T10:54:16;97392.91;;;-4.67;83.63
35443;BME280;21561;55.654;37.592;2023-02-20T11:01:59;97388.88;;;-4.54;83.21
35443;BME280;21561;55.654;37.592;2023-02-20T11:04:36;97387.19;;;-4.55;82.68
35443;BME280;21561;55.654;37.592;2023-02-20T11:07:09;97391.34;;;-4.59;82.77
35443;BME280;21561;55.654;37.592;2023-02-20T11:09:40;97394.66;;;-4.62;83.25
35443;BME280;21561;55.654;37.592;2023-02-20T11:12:26;97391.38;;;-4.56;82.99
35443;BME280;21561;55.654;37.592;2023-02-20T11:15:00;97388.78;;;-4.62;83.39
35443;BME280;21561;55.654;37.592;2023-02-20T11:17:31;97384.53;;;-4.63;83.92
35443;BME280;21561;55.654;37.592;2023-02-20T11:20:01;97382.91;;;-4.61;83.35
35443;BME280;21561;55.654;37.592;2023-02-20T11:22:45;97382.22;;;-4.49;83.03
35443;BME280;21561;55.654;37.592;2023-02-20T11:25:26;97377.22;;;-4.46;83.07
35443;BME280;21561;55.654;37.592;2023-02-20T11:28:40;97378.78;;;-4.53;82.78
35443;BME280;21561;55.654;37.592;2023-02-20T11:31:02;97377.25;;;-4.45;83.80
35443;BME280;21561;55.654;37.592;2023-02-20T11:33:34;97382.19;;;-4.51;82.63
35443;BME280;21561;55.654;37.592;2023-02-20T11:36:15;97386.47;;;-4.48;82.93
35443;BME280;21561;55.654;37.592;2023-02-20T11:38:46;97393.03;;;-4.58;83.10
35443;BME280;21561;55.654;37.592;2023-02-20T11:41:33;97390.66;;;-4.49;82.83
35443;BME280;21561;55.654;37.592;2023-02-20T11:44:06;97394.81;;;-4.54;83.52
35443;BME280;21561;55.654;37.592;2023-02-20T11:46:33;97399.00;;;-4.54;83.12
35443;BME280;21561;55.654;37.592;2023-02-20T11:49:06;97400.03;;;-4.45;81.98
35443;BME280;21561;55.654;37.592;2023-02-20T11:51:43;97404.97;;;-4.51;81.45
35443;BME280;21561;55.654;37.592;2023-02-20T11:57:01;97409.88;;;-4.60;83.34
35443;BME280;21561;55.654;37.592;2023-02-20T11:59:36;97406.41;;;-4.65;82.49
35443;BME280;21561;55.654;37.592;2023-02-20T12:07:38;97404.44;;;-4.83;83.47
35443;BME280;21561;55.654;37.592;2023-02-20T12:12:39;97415.22;;;-4.92;81.59
35443;BME280;21561;55.654;37.592;2023-02-20T12:15:14;97413.47;;;-4.96;81.83
35443;BME280;21561;55.654;37.592;2023-02-20T12:18:25;97410.78;;;-5.05;82.68
35443;BME280;21561;55.654;37.592;2023-02-20T12:21:03;97412.44;;;-5.07;83.22
35443;BME280;21561;55.654;37.592;2023-02-20T12:23:49;97409.06;;;-5.06;83.78
35443;BME280;21561;55.654;37.592;2023-02-20T12:29:29;97410.94;;;-4.96;84.76
35443;BME280;21561;55.654;37.592;2023-02-20T12:37:23;97408.72;;;-5.25;81.90
35443;BME280;21561;55.654;37.592;2023-02-20T12:48:25;97414.69;;;-5.21;81.11
35443;BME280;21561;55.654;37.592;2023-02-20T12:51:00;97417.06;;;-5.30;81.88
35443;BME280;21561;55.654;37.592;2023-02-20T12:56:39;97424.84;;;-5.20;81.49
35443;BME280;21561;55.654;37.592;2023-02-20T12:59:27;97422.81;;;-5.38;81.94
35443;BME280;21561;55.654;37.592;2023-02-20T13:02:02;97425.19;;;-5.45;81.58
35443;BME280;21561;55.654;37.592;2023-02-20T13:04:47;97415.88;;;-5.46;81.98
35443;BME280;21561;55.654;37.592;2023-02-20T13:07:27;97413.22;;;-5.54;82.15
35443;BME280;21561;55.654;37.592;2023-02-20T13:12:38;97405.81;;;-5.45;82.71
35443;BME280;21561;55.654;37.592;2023-02-20T13:21:14;97412.69;;;-5.38;81.83
35443;BME280;21561;55.654;37.592;2023-02-20T13:23:45;97409.88;;;-5.51;81.40
35443;BME280;21561;55.654;37.592;2023-02-20T13:29:27;97418.31;;;-5.52;81.55
35443;BME280;21561;55.654;37.592;2023-02-20T13:31:57;97419.81;;;-5.61;82.56
35443;BME280;21561;55.654;37.592;2023-02-20T13:34:37;97415.00;;;-5.48;82.67
35443;BME280;21561;55.654;37.592;2023-02-20T13:45:40;97421.50;;;-5.61;82.79
35443;BME280;21561;55.654;37.592;2023-02-20T13:48:37;97423.44;;;-5.48;82.50
35443;BME280;21561;55.654;37.592;2023-02-20T13:56:16;97420.16;;;-5.83;82.58
35443;BME280;21561;55.654;37.592;2023-02-20T13:58:45;97433.31;;;-6.00;81.96
35443;BME280;21561;55.654;37.592;2023-02-20T14:01:12;97421.66;;;-5.93;84.05
35443;BME280;21561;55.654;37.592;2023-02-20T14:03:40;97431.09;;;-5.84;83.78
35443;BME280;21561;55.654;37.592;2023-02-20T14:06:16;97426.16;;;-5.78;82.28
35443;BME280;21561;55.654;37.592;2023-02-20T14:08:47;97426.06;;;-5.84;82.75
35443;BME280;21561;55.654;37.592;2023-02-20T14:11:35;97427.69;;;-5.86;83.40
35443;BME280;21561;55.654;37.592;2023-02-20T14:14:07;97430.75;;;-6.01;84.02
35443;BME280;21561;55.654;37.592;2023-02-20T14:16:37;97439.00;;;-6.10;85.11
35443;BME280;21561;55.654;37.592;2023-02-20T14:19:18;97435.63;;;-6.09;85.76
35443;BME280;21561;55.654;37.592;2023-02-20T14:21:46;97428.00;;;-6.10;86.31
35443;BME280;21561;55.654;37.592;2023-02-20T14:26:45;97438.81;;;-6.16;85.42
35443;BME280;21561;55.654;37.592;2023-02-20T14:29:41;97431.41;;;-6.08;85.86
35443;BME280;21561;55.654;37.592;2023-02-20T14:32:12;97433.06;;;-6.10;87.37
35443;BME280;21561;55.654;37.592;2023-02-20T14:40:17;97440.22;;;-5.91;84.95
35443;BME280;21561;55.654;37.592;2023-02-20T14:42:45;97438.31;;;-6.01;84.29
35443;BME280;21561;55.654;37.592;2023-02-20T14:45:15;97442.41;;;-6.08;84.54
35443;BME280;21561;55.654;37.592;2023-02-20T14:47:56;97441.53;;;-6.08;84.96
35443;BME280;21561;55.654;37.592;2023-02-20T14:55:31;97443.84;;;-6.18;85.37
35443;BME280;21561;55.654;37.592;2023-02-20T14:58:04;97446.44;;;-6.15;85.64
35443;BME280;21561;55.654;37.592;2023-02-20T15:00:36;97441.31;;;-6.18;85.42
35443;BME280;21561;55.654;37.592;2023-02-20T15:03:25;97454.81;;;-6.17;85.04
35443;BME280;21561;55.654;37.592;2023-02-20T15:06:01;97449.75;;;-6.17;85.35
35443;BME280;21561;55.654;37.592;2023-02-20T15:08:32;97448.84;;;-6.19;85.82
35443;BME280;21561;55.654;37.592;2023-02-20T15:11:11;97443.88;;;-6.16;86.14
35443;BME280;21561;55.654;37.592;2023-02-20T15:13:42;97448.94;;;-6.16;86.17
35443;BME280;21561;55.654;37.592;2023-02-20T15:18:38;97444.13;;;-6.05;87.78
35443;BME280;21561;55.654;37.592;2023-02-20T15:21:06;97445.81;;;-6.06;87.11
35443;BME280;21561;55.654;37.592;2023-02-20T15:23:36;97451.63;;;-6.08;86.45
35443;BME280;21561;55.654;37.592;2023-02-20T15:26:29;97439.03;;;-6.07;86.56
35443;BME280;21561;55.654;37.592;2023-02-20T15:31:36;97439.66;;;-6.17;86.58
35443;BME280;21561;55.654;37.592;2023-02-20T15:34:12;97440.50;;;-6.17;86.11
35443;BME280;21561;55.654;37.592;2023-02-20T15:36:41;97443.59;;;-6.28;86.50
35443;BME280;21561;55.654;37.592;2023-02-20T15:39:09;97453.69;;;-6.28;87.44